createdAt,value
2023-02-02T00:00:30.166Z,9.60
2023-02-02T00:02:57.002Z,6.68
2023-02-02T00:05:24.064Z,12.15
2023-02-02T00:07:51.442Z,11.30
2023-02-02T00:10:18.199Z,9.82
2023-02-02T00:12:44.925Z,12.15
2023-02-02T00:15:11.798Z,11.35
2023-02-02T00:17:38.493Z,5.15
2023-02-02T00:20:05.431Z,5.72
2023-02-02T00:22:32.118Z,5.20
2023-02-02T00:24:58.826Z,1.75
2023-02-02T00:27:25.506Z,2.22
2023-02-02T00:29:53.687Z,2.35
2023-02-02T00:32:20.614Z,0.82
2023-02-02T00:34:47.358Z,4.05
2023-02-02T00:37:14.113Z,2.83
2023-02-02T00:39:40.802Z,1.60
2023-02-02T00:42:11.916Z,1.38
2023-02-02T00:44:57.231Z,1.05
2023-02-02T00:47:24.020Z,1.88
2023-02-02T00:49:50.715Z,0.60
2023-02-02T00:52:17.415Z,0.77
2023-02-02T00:54:44.134Z,0.82
2023-02-02T00:57:14.476Z,1.38
2023-02-02T00:59:42.220Z,0.52
2023-02-02T01:02:12.978Z,0.80
2023-02-02T01:04:39.864Z,0.32
2023-02-02T01:07:06.746Z,1.20
2023-02-02T01:09:33.461Z,0.10
2023-02-02T01:12:00.223Z,0.45
2023-02-02T01:14:27.199Z,0.20
2023-02-02T01:16:53.880Z,0.40
2023-02-02T01:19:20.634Z,0.10
2023-02-02T01:21:47.314Z,0.43
2023-02-02T01:24:14.369Z,0.10
2023-02-02T01:26:41.227Z,0.30
2023-02-02T01:29:08.124Z,0.10
2023-02-02T01:31:35.013Z,0.70
2023-02-02T01:34:01.761Z,0.80
2023-02-02T01:36:29.361Z,0.28
2023-02-02T01:38:56.237Z,0.13
2023-02-02T01:41:25.745Z,0.22
2023-02-02T01:43:58.545Z,0.20
2023-02-02T01:46:27.831Z,0.10
2023-02-02T01:49:09.676Z,1.15
2023-02-02T01:52:02.663Z,0.35
2023-02-02T01:54:36.228Z,0.15
2023-02-02T01:57:09.530Z,0.30
2023-02-02T02:02:04.258Z,0.10
2023-02-02T02:04:32.125Z,0.20
2023-02-02T02:07:00.842Z,0.55
2023-02-02T02:09:27.529Z,0.20
2023-02-02T02:11:54.617Z,0.10
2023-02-02T02:14:41.176Z,0.22
2023-02-02T02:17:28.150Z,0.50
2023-02-02T02:20:33.486Z,0.30
2023-02-02T02:23:49.291Z,0.50
2023-02-02T02:26:50.360Z,0.60
2023-02-02T02:29:44.896Z,0.57
2023-02-02T02:32:31.369Z,0.10
2023-02-02T02:35:31.502Z,0.52
2023-02-02T02:38:01.174Z,0.15
2023-02-02T02:40:45.732Z,0.65
2023-02-02T02:43:18.711Z,0.30
2023-02-02T02:45:46.138Z,0.20
2023-02-02T02:48:12.952Z,1.05
2023-02-02T02:50:39.830Z,0.50
2023-02-02T02:53:13.049Z,0.73
2023-02-02T02:56:21.072Z,0.73
2023-02-02T02:58:54.894Z,1.02
2023-02-02T03:01:38.126Z,0.20
2023-02-02T03:04:34.319Z,0.77
2023-02-02T03:07:07.364Z,0.20
2023-02-02T03:09:39.253Z,0.45
2023-02-02T03:12:06.258Z,0.30
2023-02-02T03:14:37.235Z,0.73
2023-02-02T03:17:04.044Z,0.30
2023-02-02T03:19:30.972Z,1.20
2023-02-02T03:21:57.687Z,0.77
2023-02-02T03:24:24.386Z,0.52
2023-02-02T03:26:51.821Z,0.68
2023-02-02T03:29:19.024Z,0.80
2023-02-02T03:31:46.702Z,0.52
2023-02-02T03:34:13.467Z,0.30
2023-02-02T03:36:40.167Z,0.55
2023-02-02T03:39:06.882Z,0.17
2023-02-02T03:41:33.647Z,0.47
2023-02-02T03:44:00.341Z,0.82
2023-02-02T03:46:27.789Z,0.20
2023-02-02T03:48:54.605Z,0.68
2023-02-02T03:51:21.328Z,0.20
2023-02-02T03:53:48.117Z,0.45
2023-02-02T03:56:15.674Z,0.93
2023-02-02T03:58:42.481Z,0.45
2023-02-02T04:01:12.758Z,0.47
2023-02-02T04:03:39.622Z,0.05
2023-02-02T04:06:06.533Z,0.13
2023-02-02T04:08:34.087Z,0.57
2023-02-02T04:11:01.271Z,0.80
2023-02-02T04:13:28.191Z,0.30
2023-02-02T04:15:59.884Z,0.95
2023-02-02T04:18:26.933Z,0.20
2023-02-02T04:21:00.621Z,0.65
2023-02-02T04:23:29.010Z,2.75
2023-02-02T04:25:56.496Z,2.88
2023-02-02T04:28:26.463Z,1.23
2023-02-02T04:30:55.001Z,0.88
2023-02-02T04:33:23.771Z,2.35
2023-02-02T04:35:50.547Z,0.90
2023-02-02T04:38:17.359Z,1.25
2023-02-02T04:40:46.268Z,0.63
2023-02-02T04:43:13.263Z,1.33
2023-02-02T04:45:40.202Z,1.17
2023-02-02T04:48:06.958Z,1.88
2023-02-02T04:50:33.957Z,1.35
2023-02-02T04:53:00.851Z,1.00
2023-02-02T04:55:27.658Z,0.93
2023-02-02T04:57:54.404Z,1.88
2023-02-02T05:00:21.344Z,1.75
2023-02-02T05:02:48.114Z,2.50
2023-02-02T05:05:15.115Z,0.88
2023-02-02T05:07:41.963Z,2.92
2023-02-02T05:10:09.791Z,2.25
2023-02-02T05:12:36.678Z,0.77
2023-02-02T05:15:05.386Z,1.23
2023-02-02T05:17:32.403Z,2.10
2023-02-02T05:19:59.168Z,1.50
2023-02-02T05:22:26.020Z,3.35
2023-02-02T05:24:52.766Z,1.40
2023-02-02T05:27:20.633Z,1.20
2023-02-02T05:29:48.204Z,3.55
2023-02-02T05:32:15.263Z,6.53
2023-02-02T05:34:45.058Z,1.70
2023-02-02T05:37:11.751Z,2.78
2023-02-02T05:39:38.523Z,2.25
2023-02-02T05:42:05.378Z,4.57
2023-02-02T05:44:32.317Z,4.53
2023-02-02T05:46:59.129Z,3.25
2023-02-02T05:49:26.099Z,2.30
2023-02-02T05:51:57.087Z,2.00
2023-02-02T05:54:24.487Z,3.20
2023-02-02T05:56:54.493Z,2.70
2023-02-02T05:59:21.692Z,3.30
2023-02-02T06:01:49.222Z,2.03
2023-02-02T06:04:16.064Z,2.88
2023-02-02T06:06:42.934Z,2.28
2023-02-02T06:09:10.428Z,2.97
2023-02-02T06:11:37.272Z,2.63
2023-02-02T06:14:04.061Z,4.28
2023-02-02T06:16:30.830Z,4.38
2023-02-02T06:18:57.581Z,2.80
2023-02-02T06:21:24.762Z,6.43
2023-02-02T06:23:52.219Z,2.60
2023-02-02T06:26:19.203Z,3.15
2023-02-02T06:28:50.533Z,5.70
2023-02-02T06:31:19.502Z,2.38
2023-02-02T06:33:56.691Z,2.97
2023-02-02T06:36:25.742Z,4.38
2023-02-02T06:38:54.601Z,2.80
2023-02-02T06:41:21.761Z,1.40
2023-02-02T06:43:48.964Z,1.67
2023-02-02T06:46:16.717Z,3.50
2023-02-02T06:48:43.625Z,2.65
2023-02-02T06:51:10.415Z,1.58
2023-02-02T06:53:37.531Z,3.58
2023-02-02T06:56:06.757Z,2.80
2023-02-02T06:58:34.526Z,1.45
2023-02-02T07:01:07.277Z,1.80
2023-02-02T07:03:34.874Z,1.40
2023-02-02T07:06:29.872Z,1.38
2023-02-02T07:09:02.507Z,4.70
2023-02-02T07:11:38.460Z,3.28
2023-02-02T07:14:11.123Z,1.38
2023-02-02T07:16:38.484Z,0.85
2023-02-02T07:19:05.368Z,2.65
2023-02-02T07:21:36.353Z,0.77
2023-02-02T07:24:04.641Z,0.25
2023-02-02T07:26:31.442Z,1.02
2023-02-02T07:28:58.345Z,2.17
2023-02-02T07:31:26.676Z,1.40
2023-02-02T07:33:54.266Z,0.68
2023-02-02T07:36:23.758Z,0.77
2023-02-02T07:38:54.133Z,0.90
2023-02-02T07:41:21.675Z,0.93
2023-02-02T07:43:48.786Z,1.08
2023-02-02T07:46:17.255Z,1.25
2023-02-02T07:48:44.128Z,0.52
2023-02-02T07:51:16.137Z,0.68
2023-02-02T07:53:47.587Z,0.20
2023-02-02T07:56:18.194Z,1.35
2023-02-02T07:58:45.560Z,0.22
2023-02-02T08:01:14.771Z,1.45
2023-02-02T08:03:42.886Z,1.05
2023-02-02T08:06:21.866Z,0.98
2023-02-02T08:08:49.391Z,1.13
2023-02-02T08:11:20.606Z,1.17
2023-02-02T08:13:54.437Z,1.77
2023-02-02T08:16:22.033Z,3.03
2023-02-02T08:18:49.575Z,1.77
2023-02-02T08:21:17.313Z,2.17
2023-02-02T08:23:45.620Z,1.90
2023-02-02T08:26:17.855Z,2.90
2023-02-02T08:28:47.868Z,2.08
2023-02-02T08:31:24.119Z,1.83
2023-02-02T08:33:51.563Z,15.18
2023-02-02T08:36:20.735Z,4.70
2023-02-02T08:38:48.064Z,2.08
2023-02-02T08:41:17.632Z,2.15
2023-02-02T08:43:44.625Z,3.30
2023-02-02T08:46:14.493Z,2.35
2023-02-02T08:48:41.497Z,2.97
2023-02-02T08:51:11.246Z,4.20
2023-02-02T08:53:38.458Z,2.03
2023-02-02T08:56:07.579Z,2.03
2023-02-02T08:58:34.828Z,1.48
2023-02-02T09:01:06.705Z,2.45
2023-02-02T09:03:34.062Z,3.00
2023-02-02T09:06:05.750Z,4.70
2023-02-02T09:08:33.480Z,3.15
2023-02-02T09:11:05.270Z,1.83
2023-02-02T09:13:32.030Z,2.85
2023-02-02T09:16:03.070Z,2.20
2023-02-02T09:18:30.148Z,2.40
2023-02-02T09:21:01.177Z,1.98
2023-02-02T09:23:31.122Z,1.67
2023-02-02T09:25:58.344Z,1.95
2023-02-02T09:28:25.223Z,3.10
2023-02-02T09:30:52.037Z,1.75
2023-02-02T09:33:18.799Z,3.75
2023-02-02T09:35:45.556Z,1.50
2023-02-02T09:38:12.331Z,2.05
2023-02-02T09:40:40.687Z,1.88
2023-02-02T09:43:26.047Z,2.70
2023-02-02T09:46:26.665Z,1.85
2023-02-02T09:49:02.524Z,1.42
2023-02-02T09:51:36.348Z,1.30
2023-02-02T09:54:20.928Z,2.33
2023-02-02T09:56:51.289Z,3.13
2023-02-02T09:59:29.246Z,2.42
2023-02-02T10:02:01.916Z,2.75
2023-02-02T10:04:41.763Z,2.60
2023-02-02T10:07:15.210Z,4.90
2023-02-02T10:09:47.988Z,2.03
2023-02-02T10:12:37.072Z,2.30
2023-02-02T10:15:30.541Z,2.17
2023-02-02T10:18:08.660Z,1.92
2023-02-02T10:20:47.928Z,2.55
2023-02-02T10:23:35.046Z,0.60
2023-02-02T10:26:04.840Z,1.30
2023-02-02T10:28:54.803Z,1.63
2023-02-02T10:31:57.521Z,0.82
2023-02-02T10:34:42.451Z,1.17
2023-02-02T10:37:28.492Z,1.23
2023-02-02T10:40:14.806Z,1.02
2023-02-02T10:43:22.000Z,1.63
2023-02-02T10:45:51.331Z,1.85
2023-02-02T10:48:22.077Z,0.80
2023-02-02T10:50:55.127Z,3.17
2023-02-02T10:53:25.779Z,3.97
2023-02-02T10:56:02.937Z,2.60
2023-02-02T10:58:37.899Z,4.22
2023-02-02T11:01:07.824Z,4.53
2023-02-02T11:03:34.680Z,7.20
2023-02-02T11:06:23.163Z,4.63
2023-02-02T11:08:59.448Z,6.53
2023-02-02T11:11:28.122Z,5.65
2023-02-02T11:14:02.340Z,5.45
2023-02-02T11:16:42.538Z,5.97
2023-02-02T11:19:19.607Z,6.85
2023-02-02T11:21:53.465Z,7.63
2023-02-02T11:24:49.518Z,9.77
2023-02-02T11:27:21.101Z,8.75
2023-02-02T11:29:56.068Z,9.90
2023-02-02T11:32:28.821Z,11.75
2023-02-02T11:35:18.297Z,10.82
2023-02-02T11:38:14.595Z,10.95
2023-02-02T11:40:52.099Z,9.32
2023-02-02T11:43:40.921Z,8.77
2023-02-02T11:46:28.945Z,15.85
2023-02-02T11:49:13.386Z,18.13
2023-02-02T11:51:40.162Z,14.00
2023-02-02T11:54:41.175Z,10.10
2023-02-02T11:57:09.988Z,10.90
2023-02-02T11:59:42.489Z,9.63
2023-02-02T12:02:28.054Z,9.07
2023-02-02T12:05:13.285Z,8.27
2023-02-02T12:07:41.240Z,11.18
2023-02-02T12:10:25.720Z,9.20
2023-02-02T12:13:05.943Z,8.18
2023-02-02T12:15:44.295Z,8.80
2023-02-02T12:18:40.883Z,8.23
2023-02-02T12:21:16.664Z,7.78
2023-02-02T12:24:20.307Z,8.60
2023-02-02T12:26:58.249Z,7.63
2023-02-02T12:29:34.800Z,10.30
2023-02-02T12:32:17.580Z,9.82
2023-02-02T12:35:08.667Z,9.73
2023-02-02T12:38:02.428Z,10.18
2023-02-02T12:40:39.259Z,9.70
2023-02-02T12:43:14.844Z,11.35
2023-02-02T12:46:10.651Z,14.77
2023-02-02T12:48:41.142Z,14.30
2023-02-02T12:51:36.061Z,13.65
2023-02-02T12:54:34.380Z,9.55
2023-02-02T12:57:04.906Z,9.30
2023-02-02T13:00:01.690Z,9.57
2023-02-02T13:02:37.616Z,7.88
2023-02-02T13:05:19.162Z,8.25
2023-02-02T13:07:52.310Z,9.30
2023-02-02T13:10:27.441Z,11.27
2023-02-02T13:12:59.984Z,9.70
2023-02-02T13:15:35.309Z,10.15
2023-02-02T13:18:11.726Z,9.13
2023-02-02T13:20:45.874Z,9.70
2023-02-02T13:23:20.740Z,10.32
2023-02-02T13:25:52.392Z,9.85
2023-02-02T13:28:37.622Z,8.85
2023-02-02T13:31:11.645Z,12.18
2023-02-02T13:33:39.953Z,10.70
2023-02-02T13:36:28.488Z,9.55
2023-02-02T13:39:02.160Z,8.60
2023-02-02T13:41:31.345Z,8.77
2023-02-02T13:44:09.617Z,9.25
2023-02-02T13:46:49.474Z,10.90
2023-02-02T13:49:28.901Z,11.18
2023-02-02T13:52:01.499Z,10.73
2023-02-02T13:55:00.406Z,15.63
2023-02-02T13:57:44.791Z,11.40
2023-02-02T14:00:22.608Z,10.70
2023-02-02T14:03:27.353Z,12.10
2023-02-02T14:06:10.230Z,12.52
2023-02-02T14:08:37.859Z,11.40
2023-02-02T14:11:06.945Z,14.27
2023-02-02T14:14:03.444Z,13.05
2023-02-02T14:16:32.987Z,14.20
2023-02-02T14:19:14.206Z,13.55
2023-02-02T14:21:40.895Z,13.63
2023-02-02T14:24:26.394Z,15.43
2023-02-02T14:27:00.139Z,13.75
2023-02-02T14:29:32.707Z,14.05
2023-02-02T14:32:02.408Z,18.13
2023-02-02T14:34:35.120Z,20.95
2023-02-02T14:37:16.818Z,17.73
2023-02-02T14:40:05.340Z,16.55
2023-02-02T14:43:24.159Z,19.67
2023-02-02T14:46:12.584Z,20.10
2023-02-02T14:48:41.686Z,22.48
2023-02-02T14:51:17.766Z,19.58
2023-02-02T14:54:08.566Z,23.73
2023-02-02T14:56:45.357Z,19.52
2023-02-02T14:59:38.615Z,20.65
2023-02-02T15:02:11.631Z,18.33
2023-02-02T15:04:38.500Z,25.23
2023-02-02T15:07:23.550Z,20.48
2023-02-02T15:09:51.867Z,17.45
2023-02-02T15:12:39.745Z,14.70
2023-02-02T15:15:22.699Z,11.90
2023-02-02T15:18:07.775Z,13.05
2023-02-02T15:20:45.322Z,15.52
2023-02-02T15:23:32.928Z,14.85
2023-02-02T15:26:13.514Z,16.27
2023-02-02T15:29:31.799Z,16.05
2023-02-02T15:31:59.850Z,17.15
2023-02-02T15:34:29.506Z,12.63
2023-02-02T15:36:59.949Z,16.35
2023-02-02T15:39:26.789Z,12.63
2023-02-02T15:42:17.041Z,7.30
2023-02-02T15:44:44.218Z,8.63
2023-02-02T15:47:16.924Z,7.28
2023-02-02T15:49:45.322Z,7.05
2023-02-02T15:52:17.022Z,7.65
2023-02-02T15:54:55.795Z,8.05
2023-02-02T15:57:34.806Z,8.25
2023-02-02T16:00:30.630Z,6.88
2023-02-02T16:03:20.853Z,7.38
2023-02-02T16:05:50.457Z,9.52
2023-02-02T16:08:28.039Z,11.05
2023-02-02T16:11:18.579Z,11.70
2023-02-02T16:14:03.144Z,12.15
2023-02-02T16:16:32.721Z,10.63
2023-02-02T16:19:16.437Z,13.15
2023-02-02T16:21:48.806Z,14.48
2023-02-02T16:24:22.833Z,11.77
2023-02-02T16:26:52.704Z,11.13
2023-02-02T16:29:20.501Z,11.93
2023-02-02T16:31:48.961Z,14.82
2023-02-02T16:34:48.989Z,11.48
2023-02-02T16:37:29.436Z,10.95
2023-02-02T16:39:58.107Z,12.30
2023-02-02T16:42:30.346Z,12.90
2023-02-02T16:44:59.341Z,11.65
2023-02-02T16:47:26.067Z,13.15
2023-02-02T16:50:14.858Z,12.43
2023-02-02T16:53:05.802Z,12.35
2023-02-02T16:55:49.339Z,21.65
2023-02-02T16:58:21.679Z,32.75
2023-02-02T17:01:17.797Z,35.33
2023-02-02T17:03:55.066Z,26.50
2023-02-02T17:06:45.784Z,22.77
2023-02-02T17:09:36.020Z,15.18
2023-02-02T17:12:34.172Z,15.18
2023-02-02T17:15:23.126Z,24.67
2023-02-02T17:17:51.715Z,22.70
2023-02-02T17:20:19.255Z,25.50
2023-02-02T17:22:48.454Z,26.48
2023-02-02T17:25:17.968Z,25.33
2023-02-02T17:27:45.563Z,18.67
2023-02-02T17:30:17.794Z,15.20
2023-02-02T17:32:44.598Z,8.98
2023-02-02T17:35:24.849Z,8.00
2023-02-02T17:37:52.749Z,6.13
2023-02-02T17:40:21.761Z,6.20
2023-02-02T17:42:51.284Z,8.50
2023-02-02T17:45:24.309Z,6.45
2023-02-02T17:47:51.505Z,6.38
2023-02-02T17:50:18.947Z,5.35
2023-02-02T17:52:48.231Z,5.57
2023-02-02T17:55:23.449Z,4.75
2023-02-02T17:57:52.733Z,5.00
2023-02-02T18:00:23.110Z,3.63
2023-02-02T18:02:55.797Z,3.85
2023-02-02T18:05:23.889Z,3.75
2023-02-02T18:07:50.832Z,3.75
2023-02-02T18:10:19.231Z,3.83
2023-02-02T18:12:46.068Z,2.88
2023-02-02T18:15:14.517Z,2.80
2023-02-02T18:17:41.717Z,3.35
2023-02-02T18:20:16.065Z,5.10
2023-02-02T18:22:44.217Z,5.13
2023-02-02T18:25:11.470Z,5.15
2023-02-02T18:27:38.284Z,4.63
2023-02-02T18:30:05.688Z,4.80
2023-02-02T18:32:37.431Z,5.78
2023-02-02T18:35:05.648Z,6.88
2023-02-02T18:37:32.539Z,5.45
2023-02-02T18:39:59.304Z,6.68
2023-02-02T18:42:29.884Z,6.78
2023-02-02T18:44:56.893Z,7.38
2023-02-02T18:47:23.732Z,6.25
2023-02-02T18:49:50.544Z,8.35
2023-02-02T18:52:18.973Z,10.40
2023-02-02T18:54:49.304Z,9.55
2023-02-02T18:57:17.016Z,8.40
2023-02-02T18:59:44.143Z,7.65
2023-02-02T19:02:15.452Z,8.02
2023-02-02T19:05:01.158Z,10.43
2023-02-02T19:07:46.572Z,6.65
2023-02-02T19:10:13.509Z,12.40
2023-02-02T19:12:40.883Z,12.50
2023-02-02T19:15:13.113Z,16.08
2023-02-02T19:17:40.903Z,19.38
2023-02-02T19:20:29.020Z,18.33
2023-02-02T19:23:02.475Z,27.40
2023-02-02T19:25:29.467Z,27.13
2023-02-02T19:27:56.475Z,23.52
2023-02-02T19:30:23.970Z,16.83
2023-02-02T19:32:51.092Z,18.92
2023-02-02T19:35:24.335Z,19.65
2023-02-02T19:37:59.081Z,15.23
2023-02-02T19:40:26.322Z,10.82
2023-02-02T19:43:04.457Z,5.70
2023-02-02T19:45:35.184Z,6.22
2023-02-02T19:48:18.962Z,6.10
2023-02-02T19:50:46.534Z,5.82
2023-02-02T19:53:20.490Z,5.70
2023-02-02T19:55:47.870Z,4.75
2023-02-02T19:58:26.566Z,7.15
2023-02-02T20:00:55.699Z,9.75
2023-02-02T20:03:43.103Z,9.82
2023-02-02T20:06:17.127Z,10.18
2023-02-02T20:08:44.167Z,8.98
2023-02-02T20:11:23.419Z,10.00
2023-02-02T20:13:51.533Z,10.70
2023-02-02T20:16:21.071Z,13.20
2023-02-02T20:18:50.757Z,14.27
2023-02-02T20:21:36.301Z,11.27
2023-02-02T20:24:03.654Z,15.07
2023-02-02T20:26:35.786Z,16.67
2023-02-02T20:29:14.013Z,16.58
2023-02-02T20:31:41.056Z,18.27
2023-02-02T20:34:25.065Z,15.07
2023-02-02T20:37:22.754Z,15.57
2023-02-02T20:40:01.080Z,17.25
2023-02-02T20:42:28.979Z,14.75
2023-02-02T20:44:56.335Z,18.45
2023-02-02T20:47:23.049Z,14.15
2023-02-02T20:49:49.990Z,15.25
2023-02-02T20:52:23.479Z,13.93
2023-02-02T20:54:51.775Z,15.15
2023-02-02T20:57:19.038Z,17.17
2023-02-02T20:59:45.781Z,18.50
2023-02-02T21:02:20.886Z,20.48
2023-02-02T21:04:48.693Z,16.10
2023-02-02T21:07:17.307Z,17.08
2023-02-02T21:09:45.155Z,14.50
2023-02-02T21:12:12.080Z,13.13
2023-02-02T21:14:38.986Z,14.82
2023-02-02T21:17:14.961Z,12.02
2023-02-02T21:19:43.432Z,13.35
2023-02-02T21:22:10.971Z,11.63
2023-02-02T21:24:38.021Z,11.95
2023-02-02T21:27:04.905Z,14.70
2023-02-02T21:29:32.691Z,15.18
2023-02-02T21:32:02.129Z,11.75
2023-02-02T21:34:30.680Z,13.02
2023-02-02T21:36:58.509Z,11.70
2023-02-02T21:39:36.441Z,14.27
2023-02-02T21:42:09.050Z,15.02
2023-02-02T21:44:38.607Z,13.52
2023-02-02T21:47:32.272Z,12.07
2023-02-02T21:50:19.270Z,10.68
2023-02-02T21:52:46.763Z,11.63
2023-02-02T21:55:22.110Z,11.23
2023-02-02T21:57:48.885Z,12.05
2023-02-02T22:00:30.805Z,10.75
2023-02-02T22:02:58.973Z,11.18
2023-02-02T22:05:36.583Z,10.52
2023-02-02T22:08:21.115Z,10.60
2023-02-02T22:10:47.924Z,10.40
2023-02-02T22:13:20.325Z,9.93
2023-02-02T22:15:49.021Z,9.93
2023-02-02T22:18:26.285Z,13.93
2023-02-02T22:20:56.217Z,11.70
2023-02-02T22:23:26.633Z,15.88
2023-02-02T22:25:57.725Z,16.25
2023-02-02T22:28:27.237Z,22.23
2023-02-02T22:30:55.753Z,24.55
2023-02-02T22:33:23.665Z,24.23
2023-02-02T22:35:50.673Z,19.95
2023-02-02T22:38:19.681Z,21.42
2023-02-02T22:40:47.039Z,18.10
2023-02-02T22:43:16.219Z,16.83
2023-02-02T22:45:44.529Z,18.60
2023-02-02T22:48:12.943Z,19.05
2023-02-02T22:50:40.723Z,20.17
2023-02-02T22:53:07.499Z,19.98
2023-02-02T22:55:34.413Z,18.17
2023-02-02T22:58:01.139Z,16.55
2023-02-02T23:00:30.688Z,13.50
2023-02-02T23:02:57.553Z,15.30
2023-02-02T23:05:25.923Z,12.80
2023-02-02T23:07:53.739Z,14.23
2023-02-02T23:10:24.801Z,11.95
2023-02-02T23:12:53.875Z,12.13
2023-02-02T23:15:21.082Z,11.95
2023-02-02T23:17:47.933Z,13.80
2023-02-02T23:20:15.909Z,13.43
2023-02-02T23:22:43.163Z,12.35
2023-02-02T23:25:10.866Z,12.00
2023-02-02T23:27:37.828Z,13.02
2023-02-02T23:30:07.363Z,11.88
2023-02-02T23:32:34.757Z,15.82
2023-02-02T23:35:01.578Z,13.35
2023-02-02T23:37:28.692Z,13.07
2023-02-02T23:39:55.443Z,12.90
2023-02-02T23:42:22.249Z,11.52
2023-02-02T23:44:49.010Z,10.18
2023-02-02T23:47:16.075Z,9.98
2023-02-02T23:49:43.311Z,10.88
2023-02-02T23:52:10.469Z,9.02
2023-02-02T23:54:37.547Z,9.65
2023-02-02T23:57:04.842Z,9.10
2023-02-02T23:59:31.578Z,10.02
